Vestal, New York
Current Conditions -  °F | °C
As of 2:53 AM on Friday 26 Dec 2014 (Local Time) from KBGM Reporting Station
Overcast Overcast  
Wind Chill: 29°   Ceiling: 2700
Heat Index: 36°   Visibility: 10mi
Dew Point: 26°   Wind: 9mph
Humidity: 67%   Direction: 290°WNW
Pressure: 30.11"   Gusts: NA
Location:  42.08°N, 76.05°W
Report Text: KBGM 260753Z AUTO 29008KT 10SM OVC027 02/M03 A3011 RMK AO2 SLP210 T00221033
Loading
Personal Weather Stations






























Interactive Weather Map New forecast layout! Learn more

10-Day Weather Forecast

Advertisements
Track Severe Weather on mobile